Latest Weather Observations for Horsham

IDV60801

Issued at 8:12 am EST Saturday 24 August 2019 (issued every 10 minutes, with the page automatically refreshed every 10 minutes)

About weather observations | Map of weather stations | Latest weather observations for VIC | Other Formats
Station Details ID: 079100 Name: HORSHAM AERODROME Lat: -36.67 Lon: 142.17 Height: 133.8 m
Data from the previous 72 hours. | See also: Recent months at Horsham
Date/Time
EST
Temp
°C
App
Temp
°C
Dew
Point
°C
Rel
Hum
%
Delta-T
°C
Wind Press
QNH
hPa
Press
MSL
hPa
Rain since
9am
mm
Dir  Spd
km/h
Gust
km/h
Spd
kts
Gust
kts
24/08:00am 4.3 -0.8 3.1 92 0.5 N 19 24 10 13 1015.5 1015.7 0.0
24/07:30am 2.8 -2.1 1.9 94 0.4 N 17 20 9 11 1015.5 1015.7 0.0
24/07:00am 2.3 -2.7 1.3 93 0.4 N 17 20 9 11 1015.5 1015.7 0.0
24/06:30am 2.6 -2.7 1.7 94 0.4 N 19 22 10 12 1015.5 1015.7 0.0
24/06:00am 2.1 -3.3 1.2 94 0.3 NNE 19 20 10 11 1015.4 1015.6 0.0
24/05:30am 2.2 -3.2 1.3 94 0.3 NNE 19 20 10 11 1015.4 1015.6 0.0
24/05:00am 2.5 -2.8 1.6 94 0.3 NNE 19 22 10 12 1015.6 1015.8 0.0
24/04:30am 2.7 -2.8 2.0 95 0.3 NNE 20 22 11 12 1015.9 1016.1 0.0
24/04:00am 2.5 -2.4 1.8 95 0.3 NNE 17 20 9 11 1016.4 1016.6 0.0
24/03:30am 2.7 -2.6 2.0 95 0.3 NNE 19 20 10 11 1016.6 1016.8 0.0
24/03:00am 2.3 -1.9 1.6 95 0.3 NNE 13 17 7 9 1017.1 1017.3 0.0
24/02:30am 2.0 -2.3 1.1 94 0.3 N 13 17 7 9 1017.8 1018.0 0.0
24/02:00am 3.2 -1.7 2.3 94 0.4 NNE 17 19 9 10 1018.0 1018.2 0.0
24/01:30am 3.9 -0.4 3.2 95 0.3 NNE 15 19 8 10 1018.2 1018.4 0.0
24/01:00am 3.0 -1.5 2.1 94 0.4 NNE 15 17 8 9 1018.5 1018.7 0.0
24/12:30am 3.6 -0.4 2.7 94 0.4 NNE 13 17 7 9 1018.7 1018.9 0.0
24/12:00am 2.8 -1.4 1.8 93 0.4 NNE 13 13 7 7 1018.9 1019.1 0.0
 
Date/Time
EST
Temp
°C
App
Temp
°C
Dew
Point
°C
Rel
Hum
%
Delta-T
°C
Wind Press
QNH
hPa
Press
MSL
hPa
Rain since
9am
mm
Dir  Spd
km/h
Gust
km/h
Spd
kts
Gust
kts
23/11:30pm 4.0 0.4 3.0 93 0.4 NNE 11 11 6 6 1019.1 1019.3 0.0
23/11:00pm 4.7 1.2 3.5 92 0.5 NNE 11 17 6 9 1019.2 1019.4 0.0
23/10:30pm 5.7 1.3 4.5 92 0.5 NNE 17 20 9 11 1019.0 1019.2 0.0
23/10:00pm 5.8 1.4 4.8 93 0.4 NNE 17 19 9 10 1019.2 1019.4 0.0
23/09:30pm 5.8 1.0 4.8 93 0.4 NNE 19 20 10 11 1019.4 1019.6 0.0
23/09:00pm 5.8 1.7 4.6 92 0.5 NNE 15 17 8 9 1019.8 1020.1 0.0
23/08:30pm 5.5 2.1 4.0 90 0.6 N 11 15 6 8 1020.2 1020.5 0.0
23/08:00pm 6.8 2.1 5.3 90 0.7 NNE 19 20 10 11 1020.3 1020.6 0.0
23/07:30pm 7.0 2.7 5.2 88 0.8 NNE 17 20 9 11 1020.4 1020.7 0.0
23/07:00pm 7.9 3.8 6.0 88 0.9 NNE 17 19 9 10 1020.4 1020.7 0.0
23/06:30pm 8.5 4.4 6.1 85 1.1 NNE 17 17 9 9 1020.4 1020.7 0.0
23/06:00pm 10.5 7.2 6.5 76 1.9 NNE 13 15 7 8 1020.4 1020.7 0.0
23/05:30pm 13.4 9.1 7.2 66 3.0 N 19 22 10 12 1020.3 1020.6 0.0
23/05:00pm 14.4 9.5 7.0 61 3.6 N 22 28 12 15 1020.3 1020.6 0.0
23/04:30pm 14.8 9.0 6.4 57 4.1 N 26 33 14 18 1020.0 1020.3 0.0
23/04:00pm 15.0 8.8 6.3 56 4.2 N 28 35 15 19 1020.0 1020.3 0.0
23/03:30pm 15.3 9.2 6.6 56 4.3 N 28 37 15 20 1020.3 1020.6 0.0
23/03:00pm 15.0 8.1 6.3 56 4.2 N 32 41 17 22 1020.9 1021.2 0.0
23/02:30pm 14.4 8.3 6.5 59 3.8 N 28 37 15 20 1021.2 1021.5 0.0
23/02:00pm 14.3 8.4 7.4 63 3.4 N 28 37 15 20 1022.2 1022.4 0.0
23/01:30pm 14.3 8.8 7.6 64 3.3 N 26 39 14 21 1022.8 1023.0 0.0
23/01:00pm 13.0 7.7 6.6 65 3.1 N 24 32 13 17 1023.3 1023.5 0.0
23/12:30pm 12.5 6.4 6.5 67 2.9 N 28 35 15 19 1024.0 1024.2 0.0
23/12:00pm 12.4 6.7 6.9 69 2.6 N 26 33 14 18 1024.5 1024.7 0.0
23/11:30am 11.8 6.4 6.5 70 2.5 N 24 33 13 18 1024.9 1025.1 0.0
23/11:00am 10.9 5.5 6.3 73 2.2 N 24 30 13 16 1025.4 1025.6 0.0
23/10:30am 10.7 5.9 7.2 79 1.7 N 22 28 12 15 1025.6 1025.8 0.0
23/10:00am 9.1 4.4 6.0 81 1.4 N 20 26 11 14 1025.9 1026.2 0.0
23/09:30am 8.1 3.6 6.2 88 0.9 N 19 22 10 12 1026.3 1026.6 0.0
23/09:00am 7.2 3.9 6.3 94 0.4 N 13 17 7 9 1026.4 1026.7 0.0
23/08:30am 6.0 3.3 5.6 97 0.2 N 9 15 5 8 1026.5 1026.8 0.0
23/08:00am 4.6 1.3 4.3 98 0.1 NNE 11 13 6 7 1026.3 1026.6 0.0
23/07:30am 3.9 0.4 3.6 98 0.1 NNE 11 15 6 8 1026.1 1026.4 0.0
23/07:00am 2.8 -0.5 2.5 98 0.1 N 9 13 5 7 1026.0 1026.3 0.0
23/06:30am 3.5 -0.1 3.2 98 0.1 NNE 11 13 6 7 1025.8 1026.1 0.0
23/06:00am 3.4 0.6 3.1 98 0.1 N 7 11 4 6 1025.7 1026.0 0.0
23/05:30am 3.4 0.2 3.1 98 0.1 NNW 9 11 5 6 1025.7 1026.0 0.0
23/05:00am 3.7 0.9 3.3 97 0.2 NNE 7 11 4 6 1025.4 1025.6 0.0
23/04:30am 4.3 1.8 3.9 97 0.2 ENE 6 11 3 6 1025.6 1025.8 0.0
23/04:00am 4.2 1.5 3.8 97 0.2 NE 7 11 4 6 1026.0 1026.3 0.0
23/03:30am 4.4 1.9 4.0 97 0.2 E 6 9 3 5 1025.9 1026.2 0.0
23/03:00am 3.9 1.4 3.5 97 0.2 NNE 6 9 3 5 1026.3 1026.6 0.0
23/02:30am 3.5 0.7 2.9 96 0.2 NW 7 9 4 5 1026.5 1026.8 0.0
23/02:00am 2.6 -0.8 2.0 96 0.2 WNW 9 11 5 6 1026.8 1027.1 0.0
23/01:30am 2.3 -0.6 1.6 95 0.3 WNW 6 9 3 5 1026.9 1027.2 0.0
23/01:00am 2.9 0.5 2.2 95 0.3 NW 4 7 2 4 1026.8 1027.1 0.0
23/12:30am 2.2 -0.7 1.3 94 0.3 NW 6 7 3 4 1027.1 1027.4 0.0
23/12:00am 3.4 0.6 2.2 92 0.5 W 6 7 3 4 1027.2 1027.5 0.0
 
Date/Time
EST
Temp
°C
App
Temp
°C
Dew
Point
°C
Rel
Hum
%
Delta-T
°C
Wind Press
QNH
hPa
Press
MSL
hPa
Rain since
9am
mm
Dir  Spd
km/h
Gust
km/h
Spd
kts
Gust
kts
22/11:30pm 4.0 1.3 2.7 91 0.5 W 6 7 3 4 1027.2 1027.5 0.0
22/11:00pm 4.1 0.8 2.5 89 0.6 W 9 11 5 6 1027.3 1027.6 0.0
22/10:30pm 7.2 4.4 5.0 86 1.0 S 9 11 5 6 1027.1 1027.4 0.0
22/10:00pm 6.5 3.7 5.0 90 0.7 SSE 9 9 5 5 1027.2 1027.5 0.0
22/09:30pm 5.2 1.8 3.9 91 0.6 SE 11 13 6 7 1027.0 1027.3 0.0
22/09:00pm 5.5 1.7 3.7 88 0.8 SSE 13 13 7 7 1027.1 1027.4 0.0
22/08:30pm 5.6 1.5 4.1 90 0.6 SSE 15 15 8 8 1027.0 1027.3 0.0
22/08:00pm 7.1 3.2 5.3 88 0.8 S 15 17 8 9 1026.7 1027.0 0.0
22/07:30pm 8.2 4.5 6.2 87 0.9 S 15 17 8 9 1026.6 1026.9 0.0
22/07:00pm 8.0 4.5 5.3 83 1.2 S 13 17 7 9 1026.7 1027.0 0.0
22/06:30pm 9.9 7.1 7.0 82 1.4 SSW 11 13 6 7 1026.5 1026.8 0.0
22/06:00pm 10.4 7.5 6.7 78 1.7 SSW 11 13 6 7 1026.1 1026.4 0.0
22/05:30pm 12.8 8.5 7.0 68 2.8 SSW 19 24 10 13 1025.9 1026.2 0.0
22/05:00pm 14.1 9.7 7.2 63 3.4 SSW 20 26 11 14 1025.7 1026.0 0.0
22/04:30pm 15.0 10.5 7.1 59 3.9 SW 20 28 11 15 1025.6 1025.8 0.0
22/04:00pm 14.1 8.8 6.7 61 3.6 SSW 24 33 13 18 1025.5 1025.7 0.0
22/03:30pm 15.0 9.7 6.6 57 4.1 SSW 24 30 13 16 1025.3 1025.5 0.0
22/03:00pm 14.6 9.2 6.2 57 4.0 SSW 24 32 13 17 1025.3 1025.5 0.0
22/02:30pm 14.7 9.0 6.8 59 3.9 SSW 26 32 14 17 1025.2 1025.4 0.0
22/02:00pm 14.5 9.1 8.2 66 3.2 SSW 26 33 14 18 1025.3 1025.5 0.0
22/01:30pm 14.5 8.4 8.2 66 3.2 SW 30 37 16 20 1025.5 1025.7 0.0
22/01:00pm 14.2 8.7 7.7 65 3.2 SW 26 33 14 18 1025.5 1025.7 0.0
22/12:30pm 13.3 8.5 9.0 75 2.2 SW 24 32 13 17 1025.7 1026.0 0.0
22/12:00pm 13.5 9.3 9.6 77 2.0 SW 22 32 12 17 1025.9 1026.2 0.0
22/11:30am 12.7 5.7 8.6 76 2.1 SSW 35 43 19 23 1026.0 1026.3 0.0
22/11:00am 13.1 7.7 9.5 79 1.8 SSW 28 39 15 21 1025.8 1026.1 0.0
22/10:30am 11.5 6.4 9.1 85 1.2 S 26 35 14 19 1025.8 1026.1 0.0
22/10:24am 12.0 7.0 9.4 84 1.3 SSW 26 35 14 19 1025.7 1026.0 0.0
22/10:00am 11.1 6.9 9.7 91 0.7 SSW 22 30 12 16 1025.7 1026.0 0.0
22/09:32am 11.2 5.8 9.6 90 0.8 SW 28 39 15 21 1025.4 1025.6 0.0
22/09:30am 11.3 6.0 9.7 90 0.8 SW 28 39 15 21 1025.4 1025.6 0.0
22/09:00am 10.6 5.6 9.7 94 0.5 SSW 26 33 14 18 1025.1 1025.3 1.0
22/08:52am 10.5 5.6 9.9 96 0.3 SSW 26 35 14 19 1024.9 1025.1 1.0
22/08:41am 10.1 5.5 9.5 96 0.3 SW 24 30 13 16 1024.9 1025.1 1.0
22/08:30am 9.9 4.8 9.3 96 0.3 SSW 26 32 14 17 1024.8 1025.0 1.0
22/08:07am 9.8 5.8 9.0 95 0.4 SSW 20 26 11 14 1024.5 1024.7 0.8
22/08:00am 9.8 5.8 8.9 94 0.4 SSW 20 24 11 13 1024.2 1024.4 0.4
22/07:39am 10.1 4.7 8.2 88 0.9 SW 26 35 14 19 1024.1 1024.3 0.2
22/07:30am 10.3 4.9 8.2 87 1.0 SW 26 32 14 17 1023.9 1024.1 0.2
22/07:00am 9.8 5.1 7.7 87 1.0 SW 22 33 12 18 1023.5 1023.7 0.2
22/06:30am 9.6 4.5 7.7 88 0.9 WSW 24 32 13 17 1023.1 1023.3 0.2
22/06:00am 8.9 3.7 7.2 89 0.8 SW 24 32 13 17 1022.9 1023.1 0.2
22/05:30am 9.3 3.8 7.4 88 0.9 SW 26 35 14 19 1022.6 1022.8 0.2
22/05:00am 9.7 3.9 7.8 88 0.9 SW 28 35 15 19 1022.5 1022.7 0.2
22/04:30am 9.9 4.9 8.2 89 0.8 WSW 24 32 13 17 1022.6 1022.8 0.2
22/04:00am 9.8 3.9 7.7 87 1.0 SW 28 39 15 21 1022.5 1022.7 0.2
22/03:30am 10.4 4.6 8.0 85 1.2 SW 28 35 15 19 1022.5 1022.7 0.2
22/03:00am 10.8 3.8 8.6 86 1.1 SW 35 46 19 25 1022.7 1022.9 0.2
22/02:33am 10.9 3.9 8.5 85 1.2 WSW 35 56 19 30 1022.8 1023.0 0.2
22/02:30am 11.2 4.6 8.4 83 1.4 WSW 33 48 18 26 1022.8 1023.0 0.2
22/02:00am 11.3 5.3 8.5 83 1.4 WSW 30 44 16 24 1022.6 1022.8 0.2
22/01:30am 11.3 4.6 8.3 82 1.5 WSW 33 46 18 25 1022.8 1023.0 0.2
22/01:00am 11.3 5.7 8.7 84 1.3 WSW 28 35 15 19 1022.7 1022.9 0.2
22/12:30am 11.3 5.7 8.7 84 1.3 W 28 39 15 21 1022.4 1022.6 0.2
22/12:00am 11.0 5.3 8.4 84 1.3 WSW 28 35 15 19 1022.5 1022.7 0.2
 
Date/Time
EST
Temp
°C
App
Temp
°C
Dew
Point
°C
Rel
Hum
%
Delta-T
°C
Wind Press
QNH
hPa
Press
MSL
hPa
Rain since
9am
mm
Dir  Spd
km/h
Gust
km/h
Spd
kts
Gust
kts
21/11:30pm 11.4 5.4 8.6 83 1.4 WSW 30 43 16 23 1022.7 1022.9 0.2
21/11:00pm 11.5 5.5 8.7 83 1.4 WSW 30 41 16 22 1022.9 1023.1 0.2
21/10:30pm 11.4 6.6 9.0 85 1.2 W 24 35 13 19 1023.1 1023.3 0.2
21/10:00pm 11.2 6.4 8.9 86 1.1 W 24 32 13 17 1023.0 1023.2 0.2
21/09:30pm 11.1 6.7 9.0 87 1.1 W 22 30 12 16 1023.0 1023.2 0.2
21/09:00pm 11.3 6.7 9.6 89 0.9 W 24 30 13 16 1023.4 1023.6 0.2
21/08:30pm 11.3 7.1 9.6 89 0.9 W 22 28 12 15 1022.8 1023.0 0.2
21/08:00pm 11.6 7.0 9.7 88 1.0 W 24 35 13 19 1023.1 1023.3 0.2
21/07:30pm 12.1 6.4 9.7 85 1.2 W 30 39 16 21 1023.1 1023.3 0.2
21/07:00pm 12.1 8.2 9.3 83 1.4 W 20 26 11 14 1022.9 1023.1 0.2
21/06:30pm 12.7 7.5 9.0 78 1.9 WSW 26 33 14 18 1023.0 1023.2 0.2
21/06:00pm 12.6 8.2 9.1 79 1.8 W 22 35 12 19 1022.7 1022.9 0.2
21/05:30pm 12.8 8.1 9.1 78 1.9 WSW 24 37 13 20 1022.4 1022.6 0.2
21/05:00pm 13.8 8.0 9.3 74 2.3 WSW 30 44 16 24 1022.2 1022.4 0.2
21/04:30pm 14.2 8.6 8.6 69 2.8 WSW 28 41 15 22 1022.4 1022.6 0.2
21/04:00pm 14.4 7.0 8.4 67 3.0 WSW 37 46 20 25 1022.4 1022.6 0.2
21/03:30pm 15.4 8.4 8.6 64 3.5 WSW 35 48 19 26 1022.3 1022.5 0.2
21/03:00pm 15.4 9.0 9.3 67 3.1 WSW 33 43 18 23 1022.1 1022.3 0.2
21/02:32pm 14.7 8.0 9.7 72 2.6 WSW 35 54 19 29 1022.2 1022.4 0.2
21/02:30pm 14.5 8.3 9.9 74 2.4 WSW 33 46 18 25 1022.2 1022.4 0.2
21/02:19pm 15.0 8.8 9.4 69 2.9 WSW 32 50 17 27 1022.1 1022.3 0.2
21/02:00pm 15.5 9.6 10.3 71 2.7 WSW 32 44 17 24 1022.2 1022.4 0.2
21/01:30pm 15.2 8.3 8.9 66 3.2 WSW 35 46 19 25 1022.5 1022.7 0.2
21/01:00pm 14.3 8.1 9.5 73 2.5 WSW 32 41 17 22 1022.8 1023.0 0.2
21/12:30pm 14.2 7.1 9.4 73 2.5 WSW 37 54 20 29 1023.3 1023.5 0.2
21/12:00pm 14.8 8.6 10.0 73 2.5 WSW 33 46 18 25 1023.6 1023.8 0.2
21/11:30am 12.9 6.9 10.8 87 1.1 SW 33 46 18 25 1023.9 1024.1 0.2
21/11:00am 12.8 7.4 11.0 89 0.9 W 30 41 16 22 1023.5 1023.7 0.0
21/10:30am 13.3 7.4 10.5 83 1.5 WSW 32 50 17 27 1023.7 1023.9 0.0
21/10:29am 13.1 7.2 10.3 83 1.5 WSW 32 50 17 27 1023.7 1023.9 0.0
21/10:25am 13.2 7.0 10.0 81 1.7 WSW 33 50 18 27 1023.7 1023.9 0.0
21/10:21am 13.1 7.2 10.5 84 1.4 WSW 32 50 17 27 1023.7 1023.9 0.0
21/10:00am 12.0 6.9 10.7 92 0.7 WSW 28 39 15 21 1023.8 1024.0 0.0
21/09:46am 12.3 7.3 10.9 91 0.7 WSW 28 37 15 20 1023.8 1024.0 0.0
21/09:45am 12.1 7.0 10.7 91 0.7 WSW 28 37 15 20 1023.8 1024.0 0.0
21/09:30am 11.7 7.0 10.8 94 0.5 WSW 26 39 14 21 1023.8 1024.0 0.0
21/09:00am 11.5 7.1 10.4 93 0.6 WSW 24 33 13 18 1023.7 1023.9 0.0
21/08:30am 11.4 6.4 9.7 89 0.9 WSW 26 37 14 20 1023.5 1023.7 0.0

Other formats

Comma delimited format used in spreadsheet applications
http://www.bom.gov.au/fwo/IDV60801/IDV60801.95839.axf

JavaScript Object Notation format (JSON) in row-major order
http://www.bom.gov.au/fwo/IDV60801/IDV60801.95839.json

Data quality

Most of these data are generated automatically and are frequently updated. Quality checks on data are not normally performed. It is possible for incorrect values to appear. Refer to information at About Latest Weather Observations and please check the disclaimer before using these data.